Pagrindinis puslapis
METAR-TAF:

METAR-TAF

Oro uostai :

Sočis, Rusija

platuma: 43-26N, ilguma: 039-54E, Aukštis: 16 m

Dabartinis oras

Ataskaita buvo paskelbta 16 minutes, ne 16:00 UTC
Vėjas 4 kt iš Rytų/Šiaurės Rytų
Temperatūra 9°C
Drėgmė 76%
Slėgis 1023 hPa
Matomumas 10 km arba daugiau

METAR: URSS 171600Z 06002MPS 9999 NSC 09/05 Q1023 R02/010070 R06/010070 NOSIG RMK R06/08003MPS QFE766

Laikas: 20:16 (16:16 UTC)

Prognozė

Ataskaita buvo paskelbta 2 valandos ir 18 minutes, ne 13:58 UTC
Prognozė galioja nuo 17 metu 15 UTC su 18 metu 15 UTC
Vėjas 14 kt iš Šiaurės Rytų
Matomumas 10 km arba daugiau
Mažai debesys ne aukštis 4000 ft
Laikinai
nuo 17 metu 15 UTC su 17 metu 21 UTC
Matomumas: 5000 m
Mažai debesys ne aukštis 3000 ft
dūmai
Tapsmas
nuo 18 metu 08 UTC su 18 metu 09 UTC
Vėjas 10 kt iš Vakarų/Pietvakarių

TAF: URSS 171358Z 1715/1815 05007MPS 9999 FEW040 TEMPO 1715/1721 5000 FU FEW030 BECMG 1808/1809 24005MPS

Orai ataskaitas ir orų prognozės (METAR, TAF).

turimą stotys yra geltonos ir raudonos taškus žemėlapyje.

Perkelti pele per norėdami pamatyti stoties vardą.

Tada spustelėkite, norėdami matyti oro stebėjimo ir prognozės.

Norėdami pakeisti žemėlapį: spustelėkite ant žalios mygtukų su juodo kryžiaus žemyn,; žalią mygtuką su brūkšneliu, jei norite nutolinti; arba žalių rodyklių gretimoms žemėlapius.


METAR-TAF: